createdAt,value
2022-09-22T00:00:59.118Z,5.65
2022-09-22T00:03:22.758Z,5.55
2022-09-22T00:05:46.263Z,5.68
2022-09-22T00:08:09.870Z,5.45
2022-09-22T00:10:33.389Z,5.45
2022-09-22T00:12:57.031Z,5.93
2022-09-22T00:15:20.651Z,5.90
2022-09-22T00:17:45.980Z,5.43
2022-09-22T00:20:13.924Z,5.97
2022-09-22T00:22:37.498Z,6.20
2022-09-22T00:25:01.306Z,5.28
2022-09-22T00:27:25.632Z,5.10
2022-09-22T00:29:50.515Z,4.88
2022-09-22T00:32:14.546Z,5.40
2022-09-22T00:34:39.430Z,5.50
2022-09-22T00:37:02.973Z,5.95
2022-09-22T00:39:27.602Z,5.30
2022-09-22T00:41:53.837Z,6.00
2022-09-22T00:44:38.491Z,5.15
2022-09-22T00:47:23.611Z,4.85
2022-09-22T00:49:54.229Z,5.07
2022-09-22T00:52:23.346Z,5.25
2022-09-22T00:54:47.203Z,5.43
2022-09-22T00:57:16.008Z,5.38
2022-09-22T00:59:40.234Z,5.43
2022-09-22T01:02:03.888Z,5.60
2022-09-22T01:04:28.142Z,6.05
2022-09-22T01:06:54.559Z,5.72
2022-09-22T01:09:18.908Z,5.75
2022-09-22T01:11:44.648Z,5.75
2022-09-22T01:14:18.110Z,5.95
2022-09-22T01:16:51.687Z,5.60
2022-09-22T01:19:52.855Z,5.50
2022-09-22T01:22:40.433Z,6.05
2022-09-22T01:25:29.605Z,5.45
2022-09-22T01:28:24.526Z,5.60
2022-09-22T01:30:53.463Z,5.20
2022-09-22T01:33:32.127Z,6.00
2022-09-22T01:36:22.787Z,5.10
2022-09-22T01:38:57.623Z,5.10
2022-09-22T01:41:40.062Z,5.13
2022-09-22T01:44:07.549Z,5.13
2022-09-22T01:46:37.912Z,5.63
2022-09-22T01:49:08.650Z,5.72
2022-09-22T01:51:36.321Z,5.28
2022-09-22T01:54:05.964Z,5.40
2022-09-22T01:56:32.615Z,5.63
2022-09-22T01:59:01.287Z,4.90
2022-09-22T02:01:29.845Z,5.97
2022-09-22T02:04:01.377Z,5.27
2022-09-22T02:06:29.641Z,5.40
2022-09-22T02:08:57.867Z,5.07
2022-09-22T02:11:22.931Z,5.80
2022-09-22T02:13:47.803Z,5.32
2022-09-22T02:16:12.753Z,5.63
2022-09-22T02:18:45.037Z,5.70
2022-09-22T02:21:10.758Z,5.40
2022-09-22T02:23:35.367Z,5.03
2022-09-22T02:25:59.699Z,5.10
2022-09-22T02:28:25.276Z,5.00
2022-09-22T02:31:17.633Z,5.83
2022-09-22T02:33:40.466Z,5.60
2022-09-22T02:36:18.918Z,5.20
2022-09-22T02:38:51.462Z,5.23
2022-09-22T02:41:25.271Z,6.00
2022-09-22T02:43:55.142Z,5.30
2022-09-22T02:46:26.632Z,5.05
2022-09-22T02:48:54.322Z,4.90
2022-09-22T02:51:20.172Z,5.07
2022-09-22T02:53:43.755Z,4.80
2022-09-22T02:56:07.678Z,5.20
2022-09-22T02:58:31.237Z,5.60
2022-09-22T03:00:54.763Z,4.90
2022-09-22T03:03:18.318Z,4.53
2022-09-22T03:05:42.118Z,4.87
2022-09-22T03:08:07.921Z,4.40
2022-09-22T03:10:31.529Z,4.60
2022-09-22T03:13:15.631Z,4.30
2022-09-22T03:15:38.757Z,4.23
2022-09-22T03:18:02.365Z,4.53
2022-09-22T03:20:25.948Z,4.20
2022-09-22T03:22:49.635Z,4.03
2022-09-22T03:25:14.666Z,4.50
2022-09-22T03:27:38.395Z,4.10
2022-09-22T03:30:04.079Z,4.50
2022-09-22T03:32:27.730Z,4.00
2022-09-22T03:34:51.610Z,4.50
2022-09-22T03:37:15.194Z,4.10
2022-09-22T03:39:38.836Z,4.00
2022-09-22T03:42:03.767Z,4.50
2022-09-22T03:44:27.686Z,4.43
2022-09-22T03:46:51.214Z,3.50
2022-09-22T03:49:14.887Z,4.20
2022-09-22T03:51:38.696Z,3.80
2022-09-22T03:54:02.495Z,3.70
2022-09-22T03:56:26.023Z,3.88
2022-09-22T03:58:51.065Z,4.07
2022-09-22T04:01:14.693Z,4.00
2022-09-22T04:03:38.895Z,4.00
2022-09-22T04:06:02.862Z,4.47
2022-09-22T04:08:26.469Z,3.70
2022-09-22T04:10:50.251Z,4.43
2022-09-22T04:13:14.599Z,4.60
2022-09-22T04:15:39.546Z,4.23
2022-09-22T04:18:03.090Z,4.37
2022-09-22T04:20:27.627Z,4.17
2022-09-22T04:22:51.198Z,4.50
2022-09-22T04:25:14.703Z,4.30
2022-09-22T04:27:38.314Z,5.00
2022-09-22T04:30:01.949Z,3.60
2022-09-22T04:32:26.935Z,4.67
2022-09-22T04:34:51.115Z,4.47
2022-09-22T04:37:14.762Z,4.30
2022-09-22T04:39:38.606Z,4.50
2022-09-22T04:42:02.170Z,4.50
2022-09-22T04:44:25.755Z,4.47
2022-09-22T04:46:50.290Z,4.00
2022-09-22T04:49:15.626Z,3.70
2022-09-22T04:51:39.263Z,4.23
2022-09-22T04:54:02.984Z,4.83
2022-09-22T04:56:26.603Z,3.87
2022-09-22T04:58:50.125Z,4.23
2022-09-22T05:01:13.789Z,4.27
2022-09-22T05:03:39.099Z,3.73
2022-09-22T05:06:04.085Z,4.43
2022-09-22T05:08:27.593Z,4.37
2022-09-22T05:10:51.268Z,4.53
2022-09-22T05:13:15.482Z,4.30
2022-09-22T05:15:39.067Z,4.23
2022-09-22T05:18:02.642Z,4.43
2022-09-22T05:20:26.243Z,3.73
2022-09-22T05:22:51.281Z,4.10
2022-09-22T05:25:17.645Z,5.50
2022-09-22T05:27:45.687Z,4.87
2022-09-22T05:30:10.729Z,6.57
2022-09-22T05:32:34.250Z,6.80
2022-09-22T05:34:58.022Z,6.13
2022-09-22T05:37:21.555Z,5.97
2022-09-22T05:39:46.496Z,5.70
2022-09-22T05:42:11.157Z,5.37
2022-09-22T05:44:34.850Z,4.93
2022-09-22T05:46:59.014Z,5.90
2022-09-22T05:49:22.570Z,4.57
2022-09-22T05:51:46.739Z,4.47
2022-09-22T05:54:11.040Z,6.40
2022-09-22T05:56:35.939Z,5.90
2022-09-22T05:58:59.682Z,5.40
2022-09-22T06:01:23.253Z,3.60
2022-09-22T06:03:46.874Z,4.47
2022-09-22T06:06:10.369Z,4.43
2022-09-22T06:08:33.961Z,4.83
2022-09-22T06:10:57.492Z,5.43
2022-09-22T06:13:22.470Z,5.60
2022-09-22T06:15:48.714Z,5.03
2022-09-22T06:18:15.264Z,4.67
2022-09-22T06:20:39.222Z,6.45
2022-09-22T06:23:02.934Z,8.10
2022-09-22T06:25:28.138Z,8.32
2022-09-22T06:28:01.961Z,8.73
2022-09-22T06:30:26.988Z,7.88
2022-09-22T06:32:55.599Z,6.95
2022-09-22T06:35:19.281Z,7.55
2022-09-22T06:37:43.025Z,7.10
2022-09-22T06:40:11.885Z,7.38
2022-09-22T06:42:37.747Z,6.15
2022-09-22T06:45:02.362Z,5.38
2022-09-22T06:47:27.893Z,4.43
2022-09-22T06:49:51.496Z,4.65
2022-09-22T06:52:15.211Z,4.07
2022-09-22T06:54:39.909Z,4.53
2022-09-22T06:57:03.907Z,3.88
2022-09-22T06:59:27.630Z,4.30
2022-09-22T07:01:51.301Z,3.65
2022-09-22T07:04:16.817Z,2.78
2022-09-22T07:06:41.184Z,3.00
2022-09-22T07:09:06.150Z,3.00
2022-09-22T07:11:30.308Z,2.90
2022-09-22T07:13:55.490Z,3.05
2022-09-22T07:16:21.160Z,2.65
2022-09-22T07:18:47.350Z,2.97
2022-09-22T07:21:15.668Z,2.95
2022-09-22T07:23:40.884Z,3.00
2022-09-22T07:26:05.851Z,3.00
2022-09-22T07:28:29.559Z,3.00
2022-09-22T07:30:53.087Z,3.10
2022-09-22T07:33:17.558Z,3.53
2022-09-22T07:35:41.195Z,3.30
2022-09-22T07:38:06.137Z,3.35
2022-09-22T07:40:29.715Z,3.35
2022-09-22T07:42:53.373Z,3.50
2022-09-22T07:45:17.123Z,3.40
2022-09-22T07:47:57.828Z,3.22
2022-09-22T07:50:21.403Z,3.70
2022-09-22T07:52:51.869Z,3.80
2022-09-22T07:55:17.060Z,3.60
2022-09-22T07:57:40.543Z,3.50
2022-09-22T08:00:04.596Z,3.50
2022-09-22T08:02:35.488Z,3.25
2022-09-22T08:05:04.161Z,2.80
2022-09-22T08:07:30.023Z,3.08
2022-09-22T08:09:53.692Z,3.15
2022-09-22T08:12:18.677Z,2.85
2022-09-22T08:14:42.588Z,2.80
2022-09-22T08:17:07.563Z,3.10
2022-09-22T08:19:33.903Z,3.08
2022-09-22T08:21:57.759Z,2.58
2022-09-22T08:24:22.901Z,2.70
2022-09-22T08:26:48.388Z,2.55
2022-09-22T08:29:13.579Z,2.60
2022-09-22T08:31:41.252Z,2.38
2022-09-22T08:34:06.218Z,2.70
2022-09-22T08:36:29.991Z,2.30
2022-09-22T08:38:53.817Z,2.47
2022-09-22T08:41:27.660Z,2.53
2022-09-22T08:43:55.602Z,2.45
2022-09-22T08:46:20.656Z,2.40
2022-09-22T08:49:05.552Z,2.50
2022-09-22T08:51:55.548Z,2.28
2022-09-22T08:54:19.483Z,2.40
2022-09-22T08:56:48.226Z,2.50
2022-09-22T08:59:20.166Z,2.20
2022-09-22T09:02:29.364Z,2.20
2022-09-22T09:05:48.912Z,2.40
2022-09-22T09:08:30.969Z,1.80
2022-09-22T09:10:57.065Z,2.05
2022-09-22T09:13:38.438Z,2.00
2022-09-22T09:16:25.956Z,2.03
2022-09-22T09:18:57.720Z,1.58
2022-09-22T09:21:22.809Z,1.55
2022-09-22T09:26:36.320Z,1.20
2022-09-22T09:29:04.019Z,1.20
2022-09-22T09:31:37.434Z,1.30
2022-09-22T09:34:06.266Z,1.10
2022-09-22T09:36:34.028Z,1.20
2022-09-22T09:39:00.220Z,0.90
2022-09-22T09:41:28.214Z,1.00
2022-09-22T09:43:54.423Z,1.00
2022-09-22T09:46:33.079Z,1.15
2022-09-22T09:49:14.445Z,1.00
2022-09-22T09:51:40.934Z,0.90
2022-09-22T09:54:06.428Z,0.90
2022-09-22T09:56:31.994Z,2.10
2022-09-22T09:59:18.143Z,1.08
2022-09-22T10:01:44.217Z,1.10
2022-09-22T10:04:17.735Z,0.85
2022-09-22T10:06:41.565Z,0.80
2022-09-22T10:09:06.280Z,0.77
2022-09-22T10:11:32.474Z,0.80
2022-09-22T10:13:58.541Z,0.47
2022-09-22T10:16:24.352Z,0.50
2022-09-22T10:18:49.110Z,1.20
2022-09-22T10:21:18.354Z,0.80
2022-09-22T10:23:43.270Z,0.60
2022-09-22T10:26:20.867Z,0.70
2022-09-22T10:28:44.671Z,0.80
2022-09-22T10:31:09.903Z,0.73
2022-09-22T10:33:34.967Z,0.50
2022-09-22T10:36:11.025Z,0.40
2022-09-22T10:38:40.980Z,0.57
2022-09-22T10:41:08.960Z,0.65
2022-09-22T10:43:45.734Z,0.60
2022-09-22T10:46:32.559Z,0.65
2022-09-22T10:49:00.676Z,0.70
2022-09-22T10:51:38.107Z,0.55
2022-09-22T10:54:26.339Z,0.50
2022-09-22T10:56:54.621Z,0.50
2022-09-22T10:59:49.586Z,0.60
2022-09-22T11:02:45.378Z,0.57
2022-09-22T11:05:44.079Z,0.60
2022-09-22T11:08:30.254Z,0.80
2022-09-22T11:11:23.055Z,0.65
2022-09-22T11:14:06.444Z,0.52
2022-09-22T11:17:05.101Z,0.70
2022-09-22T11:20:01.813Z,0.70
2022-09-22T11:22:48.786Z,0.50
2022-09-22T11:25:30.014Z,2.70
2022-09-22T11:28:09.200Z,6.15
2022-09-22T11:30:36.465Z,1.95
2022-09-22T11:33:43.712Z,0.73
2022-09-22T11:36:22.454Z,0.50
2022-09-22T11:39:07.176Z,0.60
2022-09-22T11:41:39.264Z,0.30
2022-09-22T11:44:34.386Z,0.50
2022-09-22T11:47:31.360Z,0.50
2022-09-22T11:50:46.915Z,0.60
2022-09-22T11:53:35.036Z,0.70
2022-09-22T11:56:21.587Z,0.50
2022-09-22T11:58:47.475Z,0.40
2022-09-22T12:01:16.541Z,0.50
2022-09-22T12:03:47.629Z,0.70
2022-09-22T12:06:16.527Z,0.60
2022-09-22T12:08:49.396Z,0.63
2022-09-22T12:11:16.767Z,0.50
2022-09-22T12:13:47.250Z,0.70
2022-09-22T12:16:20.285Z,0.57
2022-09-22T12:18:51.243Z,0.50
2022-09-22T12:21:32.989Z,0.60
2022-09-22T12:23:57.211Z,0.50
2022-09-22T12:26:29.673Z,0.60
2022-09-22T12:28:53.426Z,0.40
2022-09-22T12:31:21.136Z,0.70
2022-09-22T12:33:51.529Z,0.40
2022-09-22T12:36:17.169Z,0.45
2022-09-22T12:38:41.114Z,0.47
2022-09-22T12:41:05.234Z,0.50
2022-09-22T12:43:29.922Z,0.45
2022-09-22T12:45:55.173Z,0.40
2022-09-22T12:48:25.039Z,0.60
2022-09-22T12:50:48.677Z,0.40
2022-09-22T12:53:26.033Z,0.50
2022-09-22T12:55:50.162Z,0.40
2022-09-22T12:58:43.608Z,0.45
2022-09-22T13:01:35.604Z,0.40
2022-09-22T13:04:18.974Z,0.52
2022-09-22T13:06:56.311Z,0.47
2022-09-22T13:09:25.516Z,0.40
2022-09-22T13:12:28.166Z,0.50
2022-09-22T13:15:21.230Z,1.50
2022-09-22T13:17:47.784Z,1.60
2022-09-22T13:20:23.334Z,1.85
2022-09-22T13:22:47.207Z,1.48
2022-09-22T13:25:28.606Z,0.70
2022-09-22T13:28:13.249Z,1.52
2022-09-22T13:30:37.676Z,1.40
2022-09-22T13:33:01.358Z,1.27
2022-09-22T13:35:31.957Z,1.10
2022-09-22T13:37:57.955Z,0.98
2022-09-22T13:40:22.262Z,0.80
2022-09-22T13:42:46.696Z,1.10
2022-09-22T13:45:19.117Z,1.00
2022-09-22T13:47:44.926Z,0.70
2022-09-22T13:50:15.160Z,0.70
2022-09-22T13:52:42.315Z,0.90
2022-09-22T13:55:11.341Z,0.70
2022-09-22T13:57:38.495Z,0.80
2022-09-22T14:00:03.888Z,0.60
2022-09-22T14:02:32.435Z,0.50
2022-09-22T14:04:59.066Z,0.60
2022-09-22T14:07:24.923Z,0.50
2022-09-22T14:09:51.235Z,0.70
2022-09-22T14:12:15.582Z,0.60
2022-09-22T14:14:40.374Z,0.55
2022-09-22T14:17:07.030Z,0.50
2022-09-22T14:19:35.762Z,0.50
2022-09-22T14:22:01.535Z,0.50
2022-09-22T14:24:25.506Z,0.50
2022-09-22T14:26:52.718Z,0.40
2022-09-22T14:29:21.320Z,0.50
2022-09-22T14:31:48.321Z,0.60
2022-09-22T14:34:18.167Z,0.75
2022-09-22T14:36:47.903Z,0.55
2022-09-22T14:39:20.255Z,0.73
2022-09-22T14:41:55.214Z,0.88
2022-09-22T14:44:44.673Z,0.63
2022-09-22T14:47:27.490Z,0.65
2022-09-22T14:49:51.457Z,0.50
2022-09-22T14:52:27.091Z,0.70
2022-09-22T14:54:51.903Z,0.57
2022-09-22T14:57:17.962Z,0.70
2022-09-22T15:00:07.557Z,0.70
2022-09-22T15:02:34.012Z,0.68
2022-09-22T15:04:57.639Z,0.75
2022-09-22T15:07:26.010Z,0.50
2022-09-22T15:09:55.514Z,0.60
2022-09-22T15:12:40.403Z,0.70
2022-09-22T15:15:04.815Z,0.57
2022-09-22T15:17:58.756Z,0.60
2022-09-22T15:20:22.519Z,0.77
2022-09-22T15:22:46.372Z,0.70
2022-09-22T15:25:15.196Z,0.60
2022-09-22T15:27:42.947Z,1.75
2022-09-22T15:30:15.868Z,3.00
2022-09-22T15:32:44.687Z,2.47
2022-09-22T15:35:10.388Z,1.92
2022-09-22T15:37:39.008Z,2.00
2022-09-22T15:40:03.110Z,1.58
2022-09-22T15:42:28.080Z,1.15
2022-09-22T15:44:53.223Z,1.30
2022-09-22T15:47:17.248Z,1.30
2022-09-22T15:49:41.257Z,1.83
2022-09-22T15:52:04.995Z,1.40
2022-09-22T15:54:29.601Z,1.70
2022-09-22T15:56:55.558Z,1.40
2022-09-22T15:59:21.871Z,1.60
2022-09-22T16:01:46.815Z,1.50
2022-09-22T16:04:10.445Z,1.50
2022-09-22T16:06:34.258Z,1.77
2022-09-22T16:08:58.545Z,1.70
2022-09-22T16:11:28.355Z,2.22
2022-09-22T16:13:51.965Z,2.38
2022-09-22T16:16:18.284Z,2.90
2022-09-22T16:18:43.926Z,2.15
2022-09-22T16:21:10.315Z,2.40
2022-09-22T16:23:34.251Z,2.80
2022-09-22T16:25:57.814Z,2.20
2022-09-22T16:28:21.371Z,2.28
2022-09-22T16:30:44.914Z,2.17
2022-09-22T16:33:08.458Z,2.10
2022-09-22T16:35:33.367Z,2.35
2022-09-22T16:37:58.092Z,2.33
2022-09-22T16:40:22.494Z,2.17
2022-09-22T16:42:46.049Z,2.22
2022-09-22T16:45:10.582Z,2.38
2022-09-22T16:47:34.171Z,2.42
2022-09-22T16:49:57.972Z,2.72
2022-09-22T16:52:24.071Z,2.25
2022-09-22T16:54:47.783Z,2.42
2022-09-22T16:57:11.471Z,3.17
2022-09-22T16:59:35.035Z,3.03
2022-09-22T17:01:58.600Z,3.80
2022-09-22T17:04:22.357Z,4.18
2022-09-22T17:06:46.562Z,3.30
2022-09-22T17:09:13.017Z,3.22
2022-09-22T17:11:39.242Z,3.83
2022-09-22T17:14:08.869Z,3.45
2022-09-22T17:16:37.640Z,3.65
2022-09-22T17:19:03.813Z,3.00
2022-09-22T17:21:31.208Z,3.20
2022-09-22T17:24:00.563Z,2.60
2022-09-22T17:26:25.495Z,5.90
2022-09-22T17:28:53.259Z,15.05
2022-09-22T17:31:16.924Z,13.52
2022-09-22T17:33:46.982Z,4.68
2022-09-22T17:36:19.554Z,4.70
2022-09-22T17:38:43.071Z,3.63
2022-09-22T17:41:08.442Z,4.80
2022-09-22T17:43:33.495Z,4.55
2022-09-22T17:45:57.006Z,4.60
2022-09-22T17:48:37.890Z,4.47
2022-09-22T17:51:18.610Z,6.60
2022-09-22T17:53:59.356Z,6.65
2022-09-22T17:56:23.007Z,7.90
2022-09-22T17:58:47.890Z,8.95
2022-09-22T18:01:11.480Z,8.57
2022-09-22T18:03:35.064Z,8.02
2022-09-22T18:05:59.187Z,7.03
2022-09-22T18:08:22.759Z,7.22
2022-09-22T18:10:46.361Z,10.18
2022-09-22T18:13:10.222Z,17.73
2022-09-22T18:15:36.575Z,11.38
2022-09-22T18:18:00.195Z,11.48
2022-09-22T18:20:23.746Z,13.93
2022-09-22T18:22:49.221Z,17.15
2022-09-22T18:25:13.071Z,17.67
2022-09-22T18:27:37.314Z,18.13
2022-09-22T18:30:00.974Z,16.75
2022-09-22T18:32:27.195Z,18.00
2022-09-22T18:34:51.239Z,18.50
2022-09-22T18:37:15.834Z,17.13
2022-09-22T18:39:40.769Z,16.33
2022-09-22T18:42:04.979Z,17.70
2022-09-22T18:44:29.280Z,18.13
2022-09-22T18:46:53.995Z,17.70
2022-09-22T18:49:19.408Z,15.50
2022-09-22T18:51:49.229Z,14.15
2022-09-22T18:54:15.512Z,13.80
2022-09-22T18:56:41.183Z,13.30
2022-09-22T18:59:06.242Z,15.13
2022-09-22T19:01:34.407Z,15.27
2022-09-22T19:03:58.336Z,14.95
2022-09-22T19:06:23.286Z,15.40
2022-09-22T19:08:46.883Z,17.63
2022-09-22T19:11:11.145Z,19.67
2022-09-22T19:13:35.837Z,20.02
2022-09-22T19:15:59.647Z,20.25
2022-09-22T19:18:23.230Z,20.52
2022-09-22T19:20:46.749Z,19.67
2022-09-22T19:23:11.731Z,18.33
2022-09-22T19:25:35.450Z,17.98
2022-09-22T19:28:00.119Z,18.80
2022-09-22T19:30:27.488Z,17.95
2022-09-22T19:32:54.659Z,18.15
2022-09-22T19:35:18.459Z,18.85
2022-09-22T19:37:42.380Z,19.52
2022-09-22T19:40:09.202Z,18.67
2022-09-22T19:42:35.917Z,19.58
2022-09-22T19:45:03.024Z,18.52
2022-09-22T19:47:26.651Z,18.08
2022-09-22T19:49:50.225Z,17.35
2022-09-22T19:52:14.760Z,15.70
2022-09-22T19:54:38.390Z,14.00
2022-09-22T19:57:03.636Z,14.95
2022-09-22T19:59:27.434Z,14.18
2022-09-22T20:01:51.120Z,13.27
2022-09-22T20:04:18.543Z,12.95
2022-09-22T20:06:42.165Z,12.30
2022-09-22T20:09:05.886Z,12.55
2022-09-22T20:11:33.419Z,12.65
2022-09-22T20:14:27.366Z,13.57
2022-09-22T20:16:53.428Z,14.25
2022-09-22T20:19:17.514Z,12.98
2022-09-22T20:21:42.378Z,12.93
2022-09-22T20:24:07.098Z,13.23
2022-09-22T20:26:31.068Z,14.70
2022-09-22T20:28:56.478Z,13.82
2022-09-22T20:31:21.632Z,12.93
2022-09-22T20:33:45.328Z,13.88
2022-09-22T20:36:13.709Z,13.30
2022-09-22T20:38:38.482Z,12.63
2022-09-22T20:41:02.990Z,13.35
2022-09-22T20:43:28.928Z,12.73
2022-09-22T20:45:52.517Z,13.30
2022-09-22T20:48:18.898Z,13.50
2022-09-22T20:50:42.554Z,14.75
2022-09-22T20:53:06.157Z,13.43
2022-09-22T20:55:29.741Z,13.93
2022-09-22T20:57:53.410Z,14.50
2022-09-22T21:00:17.315Z,14.48
2022-09-22T21:02:41.110Z,14.77
2022-09-22T21:05:06.845Z,14.10
2022-09-22T21:07:32.381Z,15.73
2022-09-22T21:10:13.310Z,14.27
2022-09-22T21:12:37.083Z,16.48
2022-09-22T21:15:00.977Z,14.70
2022-09-22T21:17:25.379Z,15.43
2022-09-22T21:19:48.995Z,16.60
2022-09-22T21:22:14.030Z,15.43
2022-09-22T21:24:37.708Z,15.80
2022-09-22T21:27:01.333Z,18.17
2022-09-22T21:29:24.888Z,16.50
2022-09-22T21:31:49.780Z,16.15
2022-09-22T21:34:13.480Z,18.25
2022-09-22T21:36:37.083Z,18.42
2022-09-22T21:39:02.419Z,18.83
2022-09-22T21:41:28.635Z,17.27
2022-09-22T21:43:52.703Z,18.05
2022-09-22T21:46:18.888Z,19.27
2022-09-22T21:48:43.144Z,18.02
2022-09-22T21:51:09.811Z,18.02
2022-09-22T21:53:35.153Z,17.43
2022-09-22T21:56:03.260Z,17.15
2022-09-22T21:58:28.003Z,21.03
2022-09-22T22:00:53.024Z,17.55
2022-09-22T22:03:31.705Z,17.75
2022-09-22T22:06:02.814Z,18.58
2022-09-22T22:08:26.437Z,19.23
2022-09-22T22:10:50.113Z,17.60
2022-09-22T22:13:15.866Z,19.90
2022-09-22T22:15:40.537Z,19.08
2022-09-22T22:18:04.266Z,20.10
2022-09-22T22:20:27.938Z,24.65
2022-09-22T22:22:51.574Z,21.90
2022-09-22T22:25:17.372Z,21.48
2022-09-22T22:27:41.048Z,22.03
2022-09-22T22:30:07.267Z,25.63
2022-09-22T22:32:30.982Z,21.80
2022-09-22T22:34:54.588Z,22.93
2022-09-22T22:37:18.151Z,23.13
2022-09-22T22:39:41.710Z,22.97
2022-09-22T22:42:06.152Z,23.40
2022-09-22T22:44:29.864Z,25.10
2022-09-22T22:46:55.009Z,25.80
2022-09-22T22:49:18.551Z,24.47
2022-09-22T22:51:43.994Z,23.85
2022-09-22T22:54:08.290Z,23.90
2022-09-22T22:56:32.100Z,25.43
2022-09-22T22:58:55.899Z,23.10
2022-09-22T23:01:22.171Z,22.98
2022-09-22T23:03:49.951Z,23.37
2022-09-22T23:06:19.006Z,24.40
2022-09-22T23:08:43.774Z,22.73
2022-09-22T23:11:11.459Z,23.07
2022-09-22T23:13:35.421Z,24.23
2022-09-22T23:16:08.095Z,23.27
2022-09-22T23:18:35.305Z,22.13
2022-09-22T23:21:00.392Z,23.95
2022-09-22T23:23:24.050Z,22.60
2022-09-22T23:25:50.339Z,24.40
2022-09-22T23:28:14.015Z,24.57
2022-09-22T23:30:37.583Z,26.00
2022-09-22T23:33:01.301Z,23.00
2022-09-22T23:35:25.012Z,23.53
2022-09-22T23:37:50.915Z,23.63
2022-09-22T23:40:14.544Z,23.73
2022-09-22T23:42:38.198Z,23.53
2022-09-22T23:45:01.728Z,24.00
2022-09-22T23:47:25.366Z,23.67
2022-09-22T23:49:49.052Z,22.50
2022-09-22T23:52:12.726Z,23.47
2022-09-22T23:54:37.631Z,23.73
2022-09-22T23:57:01.530Z,22.87
2022-09-22T23:59:25.130Z,21.77
